This is the latest recevied weather packets stored in our database for station/object KG5APU. If no packets are shown the sender has not sent any weather packets the latest 10 day(s).
| Time | Temp. | Humidity | Pressure | Rain* | Wind** | Luminosity | Snow |
|---|---|---|---|---|---|---|---|
| 1777778337 | 18.33° C | 67% | 1020.6 hPa | 0 mm | - | 0 W/m² | - |
| 1777777736 | 18.33° C | 65% | 1020.3 hPa | 0 mm | - | 0 W/m² | - |
| 1777777135 | 18.89° C | 60% | 1020.5 hPa | 0 mm | - | 0 W/m² | - |
| 1777776530 | 18.89° C | 60% | 1020.3 hPa | 0 mm | - | 0 W/m² | - |
| 1777775929 | 17.78° C | 63% | 1020.1 hPa | 0 mm | - | 0 W/m² | - |
| 1777775329 | 17.22° C | 65% | 1020.3 hPa | 0 mm | - | 0 W/m² | - |
| 1777774726 | 17.22° C | 68% | 1020.1 hPa | 0 mm | - | 0 W/m² | - |
| 1777774126 | 17.22° C | 67% | 1020.1 hPa | 0 mm | - | 0 W/m² | - |
| 1777773525 | 17.78° C | 64% | 1020 hPa | 0 mm | - | 0 W/m² | - |
| 1777772924 | 18.89° C | 61% | 1020.1 hPa | 0 mm | - | 0 W/m² | - |
| 1777772319 | 19.44° C | 56% | 1019.6 hPa | 0 mm | - | 0 W/m² | - |
| 1777771719 | 20° C | 56% | 1019.8 hPa | 0 mm | - | 0 W/m² | - |
| 1777771114 | 20° C | 56% | 1019.7 hPa | 0 mm | - | 1 W/m² | - |
| 1777770513 | 21.11° C | 50% | 1019.6 hPa | 0 mm | - | 4 W/m² | - |
| 1777769913 | 22.22° C | 48% | 1019.4 hPa | 0 mm | - | 10 W/m² | - |
| 1777769312 | 23.33° C | 48% | 1019.2 hPa | 0 mm | - | 18 W/m² | - |
| 1777768707 | 23.89° C | 45% | 1019.3 hPa | 0 mm | - | 28 W/m² | - |
| 1777768107 | 25° C | 41% | 1019.4 hPa | 0 mm | - | 42 W/m² | - |
| 1777767506 | 25° C | 38% | 1019.4 hPa | 0 mm | - | 55 W/m² | - |
| 1777766906 | 25.56° C | 37% | 1019.1 hPa | 0 mm | - | 71 W/m² | - |
| 1777766306 | 25° C | 36% | 1019.5 hPa | 0 mm | - | 68 W/m² | - |
| 1777765706 | 24.44° C | 36% | 1019.4 hPa | 0 mm | - | 109 W/m² | - |
| 1777765106 | 25° C | 35% | 1019.2 hPa | 0 mm | - | 129 W/m² | - |
| 1777764505 | 25° C | 36% | 1019.4 hPa | 0 mm | - | 162 W/m² | - |
| 1777763904 | 25.56° C | 37% | 1019.6 hPa | 0 mm | - | 188 W/m² | - |
* Rain latest hour (hover to see other rain measurements)
** Current wind speed in m/s (hover to see current wind gust speed)